Time;durP1;ratioP1;P1;durP2;ratioP2;P2;SDS_P1;SDS_P2;PMS_P1;PMS_P2;Temp;Humidity;BMP_temperature;BMP_pressure;BME280_temperature;BME280_humidity;BME280_pressure;Samples;Min_cycle;Max_cycle;Signal;HPM_P1;HPM_P2
2021/03/13 00:00:13;;;;;;;2.87;0.90;;;3.60;99.90;;;;;;2080737;28;20606;-68
2021/03/13 00:01:14;;;;;;;1.52;0.70;;;3.60;99.90;;;;;;2071130;28;20189;-70
2021/03/13 00:02:15;;;;;;;2.30;0.75;;;3.60;99.90;;;;;;2063726;28;20234;-69
2021/03/13 00:03:17;;;;;;;1.00;0.73;;;3.60;99.90;;;;;;2063893;28;20186;-69
2021/03/13 00:04:17;;;;;;;1.52;0.70;;;3.70;99.90;;;;;;2072578;28;20170;-69
2021/03/13 00:05:29;;;;;;;2.53;0.70;;;3.70;99.90;;;;;;2072827;28;20273;-69
2021/03/13 00:06:29;;;;;;;2.15;0.80;;;3.70;99.90;;;;;;2072326;28;20216;-67
2021/03/13 00:07:30;;;;;;;3.53;0.90;;;3.70;99.90;;;;;;2072064;28;20205;-69
2021/03/13 00:08:34;;;;;;;3.63;1.30;;;3.70;99.90;;;;;;2080900;28;20183;-68
2021/03/13 00:09:35;;;;;;;4.25;0.90;;;3.70;99.90;;;;;;2072560;28;20669;-68
2021/03/13 00:10:38;;;;;;;5.20;1.13;;;3.70;99.90;;;;;;2073374;28;20181;-68
2021/03/13 00:11:39;;;;;;;3.05;1.13;;;3.70;99.90;;;;;;2071620;28;20183;-70
2021/03/13 00:12:39;;;;;;;3.47;0.93;;;3.70;99.90;;;;;;2072636;28;20237;-66
2021/03/13 00:13:41;;;;;;;1.80;1.00;;;3.70;99.90;;;;;;2073122;28;20272;-69
2021/03/13 00:14:41;;;;;;;4.75;1.00;;;3.70;99.90;;;;;;2073229;28;20180;-69
2021/03/13 00:15:44;;;;;;;1.97;1.00;;;3.70;99.90;;;;;;2073009;28;20236;-68
2021/03/13 00:16:44;;;;;;;1.50;0.80;;;3.70;99.90;;;;;;2073120;28;20176;-69
2021/03/13 00:17:48;;;;;;;3.10;1.47;;;3.70;99.90;;;;;;2072710;28;20240;-68
2021/03/13 00:18:49;;;;;;;3.20;1.10;;;3.70;99.90;;;;;;2080557;28;20181;-69
2021/03/13 00:19:49;;;;;;;2.30;1.17;;;3.70;99.90;;;;;;2080741;28;20555;-69
2021/03/13 00:20:51;;;;;;;4.13;1.07;;;3.70;99.90;;;;;;2072263;28;20183;-68
2021/03/13 00:21:51;;;;;;;5.68;1.10;;;3.70;99.90;;;;;;2080462;28;20188;-69
2021/03/13 00:22:55;;;;;;;1.63;0.93;;;3.70;99.90;;;;;;2072093;28;20202;-69
2021/03/13 00:23:56;;;;;;;2.63;1.25;;;3.70;99.90;;;;;;2064473;28;20186;-68
2021/03/13 00:24:57;;;;;;;2.07;0.83;;;3.60;99.90;;;;;;2072357;28;20200;-70
2021/03/13 00:25:58;;;;;;;3.20;0.90;;;3.70;99.90;;;;;;2072328;28;20185;-68
2021/03/13 00:26:58;;;;;;;2.67;1.10;;;3.70;99.90;;;;;;2072410;28;20669;-68
2021/03/13 00:28:00;;;;;;;2.23;1.20;;;3.70;99.90;;;;;;2072649;28;20186;-70
2021/03/13 00:29:00;;;;;;;3.08;1.02;;;3.80;99.90;;;;;;2072874;28;20265;-69
2021/03/13 00:30:01;;;;;;;3.20;1.10;;;3.80;99.90;;;;;;2072910;28;20200;-70
2021/03/13 00:31:02;;;;;;;2.07;0.90;;;3.70;99.90;;;;;;2072431;28;20639;-69
2021/03/13 00:32:03;;;;;;;2.20;1.00;;;3.70;99.90;;;;;;2072450;28;20186;-69
2021/03/13 00:33:12;;;;;;;4.45;1.00;;;3.80;99.90;;;;;;2072169;28;20193;-68
2021/03/13 00:34:13;;;;;;;1.67;0.80;;;3.80;99.90;;;;;;2072414;28;20166;-71
2021/03/13 00:35:14;;;;;;;3.33;1.03;;;3.80;99.90;;;;;;2072399;28;20193;-68
2021/03/13 00:36:15;;;;;;;5.78;1.42;;;3.80;99.90;;;;;;2080448;28;20223;-68
2021/03/13 00:37:16;;;;;;;3.40;1.23;;;3.80;99.90;;;;;;2080385;28;20235;-68
2021/03/13 00:38:17;;;;;;;1.57;0.70;;;3.70;99.90;;;;;;2072939;28;20222;-68
2021/03/13 00:39:18;;;;;;;4.60;1.10;;;3.70;99.90;;;;;;2072759;28;20193;-68
2021/03/13 00:40:24;;;;;;;3.03;0.97;;;3.70;99.90;;;;;;2073136;28;20549;-68
2021/03/13 00:41:25;;;;;;;5.75;1.65;;;3.70;99.90;;;;;;2079852;28;20209;-68
2021/03/13 00:42:25;;;;;;;3.40;1.00;;;3.70;99.90;;;;;;2080640;28;20194;-68
2021/03/13 00:43:26;;;;;;;1.70;0.80;;;3.70;99.90;;;;;;2072831;28;20224;-68
2021/03/13 00:44:27;;;;;;;3.40;0.90;;;3.60;99.90;;;;;;2072799;28;20185;-69
2021/03/13 00:45:28;;;;;;;2.80;1.10;;;3.60;99.90;;;;;;2072800;28;20202;-68
2021/03/13 00:46:29;;;;;;;3.40;1.10;;;3.60;99.90;;;;;;2072887;28;20836;-68
2021/03/13 00:47:30;;;;;;;3.37;1.23;;;3.60;99.90;;;;;;2072913;28;20186;-70
2021/03/13 00:48:31;;;;;;;3.83;1.00;;;3.60;99.90;;;;;;2072200;28;20636;-68
2021/03/13 00:49:31;;;;;;;4.80;1.73;;;3.60;99.90;;;;;;2063919;28;20588;-69
2021/03/13 00:50:35;;;;;;;2.93;1.07;;;3.60;99.90;;;;;;2072327;28;20278;-68
2021/03/13 00:51:36;;;;;;;3.22;0.90;;;3.60;99.90;;;;;;2071632;28;20627;-68
2021/03/13 00:52:37;;;;;;;4.90;1.27;;;3.70;99.90;;;;;;2072186;28;20213;-68
2021/03/13 00:53:37;;;;;;;4.43;1.42;;;3.70;99.90;;;;;;2072733;28;20259;-68
2021/03/13 00:54:38;;;;;;;6.27;1.13;;;3.70;99.90;;;;;;2072880;28;20197;-69
2021/03/13 00:55:39;;;;;;;5.53;0.90;;;3.70;99.90;;;;;;2072665;28;20201;-69
2021/03/13 00:56:40;;;;;;;5.57;1.30;;;3.70;99.90;;;;;;2073021;28;20195;-69
2021/03/13 00:57:41;;;;;;;3.40;1.03;;;3.70;99.90;;;;;;2072635;28;20192;-68
2021/03/13 00:58:43;;;;;;;6.25;1.20;;;3.80;99.90;;;;;;2072218;28;20584;-68
2021/03/13 00:59:43;;;;;;;6.07;1.38;;;3.80;99.90;;;;;;2072184;28;20663;-69
2021/03/13 01:00:44;;;;;;;2.70;1.50;;;3.90;99.90;;;;;;2080060;28;20231;-68
2021/03/13 01:01:45;;;;;;;3.80;1.00;;;3.90;99.90;;;;;;2079830;28;20701;-69
2021/03/13 01:02:46;;;;;;;3.13;1.00;;;3.90;99.90;;;;;;2072717;28;20190;-68
2021/03/13 01:03:47;;;;;;;2.85;1.27;;;3.90;99.90;;;;;;2072958;28;20713;-69
2021/03/13 01:04:48;;;;;;;4.50;1.30;;;3.90;99.90;;;;;;2072988;28;20265;-68
2021/03/13 01:05:49;;;;;;;2.37;1.00;;;3.80;99.90;;;;;;2072473;28;20257;-69
2021/03/13 01:06:49;;;;;;;3.53;1.20;;;3.80;99.90;;;;;;2080650;28;20199;-69
2021/03/13 01:07:50;;;;;;;1.63;0.80;;;3.90;99.90;;;;;;2080252;28;20717;-69
2021/03/13 01:08:51;;;;;;;3.40;1.25;;;3.90;99.90;;;;;;2072251;28;20661;-68
2021/03/13 01:09:52;;;;;;;1.83;1.00;;;3.90;99.90;;;;;;2072754;28;20182;-69
2021/03/13 01:10:53;;;;;;;7.30;1.20;;;3.90;99.90;;;;;;2071525;28;20181;-68
2021/03/13 01:11:55;;;;;;;4.07;1.00;;;3.90;99.90;;;;;;2072216;28;20213;-68
2021/03/13 01:12:56;;;;;;;2.60;1.35;;;4.00;99.90;;;;;;2080475;28;20322;-68
2021/03/13 01:13:56;;;;;;;2.90;1.00;;;4.00;99.90;;;;;;2080484;28;20185;-69
2021/03/13 01:14:57;;;;;;;4.27;1.00;;;4.00;99.90;;;;;;2080278;28;20544;-68
2021/03/13 01:15:58;;;;;;;2.57;0.90;;;4.00;99.90;;;;;;2080452;28;20196;-68
2021/03/13 01:16:58;;;;;;;1.63;0.90;;;4.00;99.90;;;;;;2072539;28;20186;-68
2021/03/13 01:18:04;;;;;;;3.57;1.07;;;4.00;99.90;;;;;;2072704;28;20233;-68
2021/03/13 01:19:04;;;;;;;3.47;0.90;;;3.90;99.90;;;;;;2074398;28;20212;-68
2021/03/13 01:20:09;;;;;;;3.00;1.10;;;3.90;99.90;;;;;;2081842;28;20178;-69
2021/03/13 01:21:10;;;;;;;1.92;0.90;;;3.90;99.90;;;;;;2080671;28;20436;-68
2021/03/13 01:22:10;;;;;;;3.53;1.00;;;3.90;99.90;;;;;;2073744;28;20188;-69
2021/03/13 01:23:11;;;;;;;2.73;0.83;;;3.90;99.90;;;;;;2074246;28;20578;-68
2021/03/13 01:24:12;;;;;;;4.07;0.90;;;3.90;99.90;;;;;;2074239;28;20206;-68
2021/03/13 01:25:14;;;;;;;2.93;1.07;;;3.90;99.90;;;;;;2074358;28;20177;-68
2021/03/13 01:26:15;;;;;;;2.05;0.80;;;3.90;99.90;;;;;;2074476;28;20174;-68
2021/03/13 01:27:16;;;;;;;5.13;1.20;;;3.90;99.90;;;;;;2074267;28;20641;-67
2021/03/13 01:28:16;;;;;;;3.87;1.20;;;3.90;99.90;;;;;;2074406;28;20265;-68
2021/03/13 01:29:17;;;;;;;2.80;1.00;;;4.00;99.90;;;;;;2081887;28;20176;-69
2021/03/13 01:30:21;;;;;;;5.77;1.10;;;4.00;99.90;;;;;;2081935;28;20181;-67
2021/03/13 01:31:22;;;;;;;2.03;1.08;;;4.10;99.90;;;;;;2072925;28;20421;-68
2021/03/13 01:32:22;;;;;;;3.33;1.23;;;4.10;99.90;;;;;;2073308;28;20209;-68
2021/03/13 01:33:23;;;;;;;3.57;1.00;;;4.10;99.90;;;;;;2074218;28;20209;-70
2021/03/13 01:34:24;;;;;;;3.92;1.25;;;4.10;99.90;;;;;;2074448;28;20526;-68
2021/03/13 01:35:25;;;;;;;3.30;1.00;;;4.00;99.90;;;;;;2074435;28;20193;-68
2021/03/13 01:36:26;;;;;;;2.10;1.27;;;4.00;99.90;;;;;;2074522;28;20190;-68
2021/03/13 01:37:27;;;;;;;5.33;1.20;;;4.10;99.90;;;;;;2074186;28;20650;-68
2021/03/13 01:38:27;;;;;;;3.07;1.00;;;4.10;99.90;;;;;;2074035;28;20207;-68
2021/03/13 01:39:28;;;;;;;4.70;1.10;;;4.10;99.90;;;;;;2074120;28;20178;-68
2021/03/13 01:40:29;;;;;;;5.20;1.30;;;4.10;99.90;;;;;;2074294;28;20186;-68
2021/03/13 01:41:29;;;;;;;2.80;1.33;;;4.10;99.90;;;;;;2073638;28;20200;-68
2021/03/13 01:42:30;;;;;;;2.57;1.20;;;4.10;99.90;;;;;;2074257;28;20265;-68
2021/03/13 01:43:31;;;;;;;3.57;1.00;;;4.10;99.90;;;;;;2081830;28;20177;-69
2021/03/13 01:44:32;;;;;;;2.73;0.90;;;4.10;99.90;;;;;;2073760;28;20261;-69
2021/03/13 01:45:33;;;;;;;3.07;0.83;;;4.10;99.90;;;;;;2073288;28;20421;-69
2021/03/13 01:46:33;;;;;;;3.60;0.90;;;4.00;99.90;;;;;;2074180;28;20213;-69
2021/03/13 01:47:35;;;;;;;2.20;1.00;;;4.10;99.90;;;;;;2081810;28;20263;-69
2021/03/13 01:48:43;;;;;;;2.83;0.90;;;4.10;99.90;;;;;;2081599;28;20186;-69
2021/03/13 01:49:44;;;;;;;3.80;1.00;;;4.20;99.90;;;;;;2074180;28;20917;-70
2021/03/13 01:50:46;;;;;;;3.55;1.20;;;4.20;99.90;;;;;;2081590;28;20184;-68
2021/03/13 01:51:47;;;;;;;3.50;1.00;;;4.20;99.90;;;;;;2081091;28;20187;-69
2021/03/13 01:52:48;;;;;;;5.83;1.30;;;4.20;99.90;;;;;;2074314;28;20202;-69
2021/03/13 01:53:50;;;;;;;2.20;1.00;;;4.20;99.90;;;;;;2073616;28;20193;-69
2021/03/13 01:54:51;;;;;;;3.35;1.00;;;4.20;99.90;;;;;;2078585;28;20270;-69
2021/03/13 01:55:52;;;;;;;2.47;1.00;;;4.20;99.90;;;;;;2081866;28;20189;-69
2021/03/13 01:56:53;;;;;;;2.75;0.80;;;4.20;99.90;;;;;;2081935;28;20732;-69
2021/03/13 01:57:54;;;;;;;1.93;0.97;;;4.20;99.90;;;;;;2082270;28;20182;-68
2021/03/13 01:58:54;;;;;;;3.30;1.17;;;4.20;99.90;;;;;;2081733;28;20182;-68
2021/03/13 01:59:55;;;;;;;1.47;0.90;;;4.20;99.90;;;;;;2073260;28;20247;-68
2021/03/13 02:00:56;;;;;;;1.85;0.93;;;4.20;99.90;;;;;;2072718;28;20644;-69
2021/03/13 02:01:57;;;;;;;2.97;1.07;;;4.20;99.90;;;;;;2081412;28;20262;-69
2021/03/13 02:02:57;;;;;;;3.37;0.80;;;4.20;99.90;;;;;;2082402;28;20265;-71
2021/03/13 02:04:00;;;;;;;2.43;0.90;;;4.20;99.90;;;;;;2082214;28;20177;-69
2021/03/13 02:05:00;;;;;;;3.47;0.90;;;4.20;99.90;;;;;;2082391;28;20780;-68
2021/03/13 02:06:01;;;;;;;2.53;1.00;;;4.20;99.90;;;;;;2082253;28;20181;-69
2021/03/13 02:07:28;;;;;;;3.33;1.43;;;4.20;99.90;;;;;;2082191;28;20737;-69
2021/03/13 02:09:02;;;;;;;3.40;0.90;;;4.20;99.90;;;;;;2082163;28;20536;-68
2021/03/13 02:10:50;;;;;;;2.97;1.15;;;4.20;99.90;;;;;;2081467;28;20196;-68
2021/03/13 02:11:54;;;;;;;3.97;1.15;;;4.20;99.90;;;;;;2059813;28;20202;-70
2021/03/13 02:13:26;;;;;;;2.83;1.08;;;4.20;99.90;;;;;;2081461;28;20185;-69
2021/03/13 02:15:04;;;;;;;1.52;0.60;;;4.20;99.90;;;;;;2081817;28;20191;-68
2021/03/13 02:16:21;;;;;;;4.43;0.80;;;4.20;99.90;;;;;;2081376;28;20220;-68
2021/03/13 02:17:56;;;;;;;2.47;1.00;;;4.20;99.90;;;;;;2075538;28;20169;-69
2021/03/13 02:19:36;;;;;;;3.78;0.85;;;4.20;99.90;;;;;;2086081;28;20709;-69
2021/03/13 02:21:12;;;;;;;2.38;0.90;;;4.10;99.90;;;;;;2084904;28;20228;-72
2021/03/13 02:22:14;;;;;;;2.65;0.70;;;4.20;99.90;;;;;;2081723;28;20567;-69
2021/03/13 02:23:21;;;;;;;2.75;1.00;;;4.10;99.90;;;;;;2085403;28;20708;-68
2021/03/13 02:24:27;;;;;;;3.45;1.08;;;4.10;99.90;;;;;;2083512;28;20170;-68
2021/03/13 02:26:13;;;;;;;1.60;0.80;;;4.20;99.90;;;;;;2090908;28;20185;-68
2021/03/13 02:27:23;;;;;;;2.63;1.10;;;4.20;99.90;;;;;;2091046;28;20208;-68
2021/03/13 02:28:47;;;;;;;2.15;1.02;;;4.20;99.90;;;;;;2083784;28;20172;-69
2021/03/13 02:30:04;;;;;;;2.53;0.80;;;4.20;99.90;;;;;;2076325;28;20202;-69
2021/03/13 02:31:07;;;;;;;3.08;1.00;;;4.20;99.90;;;;;;2074809;28;20230;-69
2021/03/13 02:32:20;;;;;;;2.00;0.90;;;4.20;99.90;;;;;;2073238;28;20215;-69
2021/03/13 02:33:30;;;;;;;2.00;0.93;;;4.20;99.90;;;;;;2066718;28;20255;-69
2021/03/13 02:34:35;;;;;;;2.55;1.10;;;4.20;99.90;;;;;;2067512;28;20634;-69
2021/03/13 02:35:40;;;;;;;5.93;0.90;;;4.20;99.90;;;;;;2073862;28;20168;-70
2021/03/13 02:36:44;;;;;;;5.97;0.93;;;4.20;99.90;;;;;;2073626;28;20182;-69
2021/03/13 02:38:08;;;;;;;4.25;0.90;;;4.20;99.90;;;;;;2073098;28;20282;-70
2021/03/13 02:39:11;;;;;;;1.08;0.70;;;4.30;99.90;;;;;;2076502;28;20174;-69
2021/03/13 02:40:14;;;;;;;2.42;1.00;;;4.20;99.90;;;;;;2073197;28;20190;-68
2021/03/13 02:41:23;;;;;;;3.97;0.90;;;4.20;99.90;;;;;;2080697;28;20184;-68
2021/03/13 02:42:25;;;;;;;3.03;0.85;;;4.20;99.90;;;;;;2081070;28;20208;-68
2021/03/13 02:43:28;;;;;;;4.53;1.00;;;4.20;99.90;;;;;;2081127;28;20177;-69
2021/03/13 02:44:35;;;;;;;1.95;0.90;;;4.20;99.90;;;;;;2081069;28;20178;-69
2021/03/13 02:45:41;;;;;;;3.25;1.08;;;4.20;99.90;;;;;;2081278;28;20175;-69
2021/03/13 02:46:47;;;;;;;3.25;1.00;;;4.20;99.90;;;;;;2081296;28;20167;-70
2021/03/13 02:47:50;;;;;;;3.45;0.90;;;4.30;99.90;;;;;;2081151;28;20170;-69
2021/03/13 02:48:53;;;;;;;1.55;0.73;;;4.30;99.90;;;;;;2072755;28;20190;-69
2021/03/13 02:49:56;;;;;;;5.50;1.10;;;4.20;99.90;;;;;;2073242;28;20265;-69
2021/03/13 02:51:00;;;;;;;4.43;1.00;;;4.20;99.90;;;;;;2080792;28;20243;-70
2021/03/13 02:52:02;;;;;;;5.53;0.90;;;4.20;99.90;;;;;;2073320;28;20194;-70
2021/03/13 02:53:05;;;;;;;3.38;0.90;;;4.20;99.90;;;;;;2073280;28;20187;-69
2021/03/13 02:54:08;;;;;;;2.83;0.88;;;4.20;99.90;;;;;;2073025;28;20210;-69
2021/03/13 02:55:13;;;;;;;2.22;0.70;;;4.20;99.90;;;;;;2073282;28;20592;-69
2021/03/13 02:56:17;;;;;;;5.25;1.10;;;4.10;99.90;;;;;;2073661;28;20174;-69
2021/03/13 02:57:20;;;;;;;2.25;0.90;;;4.10;99.90;;;;;;2065335;28;20196;-69
2021/03/13 02:58:23;;;;;;;3.30;0.88;;;4.10;99.90;;;;;;2065413;28;20213;-68
2021/03/13 02:59:26;;;;;;;2.72;0.98;;;4.10;99.90;;;;;;2073048;28;20191;-70
2021/03/13 03:00:34;;;;;;;2.10;0.70;;;4.10;99.90;;;;;;2073136;28;20565;-69
2021/03/13 03:01:36;;;;;;;2.47;1.17;;;4.10;99.90;;;;;;2072445;28;20178;-69
2021/03/13 03:02:38;;;;;;;2.10;0.80;;;4.20;99.90;;;;;;2072758;28;20247;-69
2021/03/13 03:03:41;;;;;;;2.58;0.90;;;4.10;99.90;;;;;;2073337;28;20236;-69
2021/03/13 03:04:43;;;;;;;5.20;1.40;;;4.20;99.90;;;;;;2073044;28;20178;-69
2021/03/13 03:05:45;;;;;;;4.30;0.88;;;4.20;99.90;;;;;;2073182;28;20234;-69
2021/03/13 03:06:52;;;;;;;2.30;1.10;;;4.20;99.90;;;;;;2080964;28;20739;-69
2021/03/13 03:07:55;;;;;;;2.72;1.35;;;4.20;99.90;;;;;;2073809;28;20190;-69
2021/03/13 03:08:57;;;;;;;4.40;1.10;;;4.10;99.90;;;;;;2080872;28;20179;-69
2021/03/13 03:10:00;;;;;;;4.70;0.90;;;4.10;99.90;;;;;;2072700;28;20182;-69
2021/03/13 03:11:02;;;;;;;4.75;0.90;;;4.10;99.90;;;;;;2072410;28;20431;-69
2021/03/13 03:12:05;;;;;;;3.08;1.10;;;4.00;99.90;;;;;;2072862;28;20291;-68
2021/03/13 03:13:07;;;;;;;1.85;0.90;;;4.00;99.90;;;;;;2072907;28;20182;-69
2021/03/13 03:14:12;;;;;;;1.83;0.77;;;4.00;99.90;;;;;;2073006;28;20181;-69
2021/03/13 03:15:15;;;;;;;3.00;0.80;;;4.00;99.90;;;;;;2073110;28;20647;-68
2021/03/13 03:16:18;;;;;;;2.20;0.80;;;4.00;99.90;;;;;;2080906;28;20182;-70
2021/03/13 03:17:20;;;;;;;2.95;0.82;;;4.00;99.90;;;;;;2081053;28;20178;-68
2021/03/13 03:18:25;;;;;;;1.85;0.80;;;4.10;99.90;;;;;;2080807;28;20302;-69
2021/03/13 03:19:26;;;;;;;1.55;0.60;;;4.00;99.90;;;;;;2073532;28;20173;-69
2021/03/13 03:20:29;;;;;;;2.47;0.80;;;4.00;99.90;;;;;;2081059;28;20270;-69
2021/03/13 03:21:31;;;;;;;2.10;0.68;;;4.00;99.90;;;;;;2080308;28;20174;-69
2021/03/13 03:22:36;;;;;;;3.95;0.93;;;4.00;99.90;;;;;;2073014;28;20220;-69
2021/03/13 03:23:38;;;;;;;3.40;0.80;;;4.00;99.90;;;;;;2073185;28;20185;-69
2021/03/13 03:24:41;;;;;;;3.38;0.70;;;4.00;99.90;;;;;;2080781;28;20359;-70
2021/03/13 03:25:42;;;;;;;2.38;0.60;;;4.00;99.90;;;;;;2080955;28;20720;-71
2021/03/13 03:26:42;;;;;;;3.83;0.80;;;4.10;99.90;;;;;;2080800;28;20285;-69
2021/03/13 03:27:53;;;;;;;2.50;0.90;;;4.10;99.90;;;;;;2081619;28;20699;-69
2021/03/13 03:28:54;;;;;;;1.90;0.70;;;4.10;99.90;;;;;;2081736;28;20249;-70
2021/03/13 03:29:55;;;;;;;2.03;0.70;;;4.10;99.90;;;;;;2080953;28;20185;-70
2021/03/13 03:30:56;;;;;;;1.87;0.70;;;4.10;99.90;;;;;;2072029;28;20203;-69
2021/03/13 03:31:56;;;;;;;1.77;0.73;;;4.20;99.90;;;;;;2080793;28;20185;-70
2021/03/13 03:32:59;;;;;;;4.30;0.90;;;4.20;99.90;;;;;;2081676;28;20196;-69
2021/03/13 03:34:00;;;;;;;2.42;0.70;;;4.20;99.90;;;;;;2081547;28;20183;-69
2021/03/13 03:35:01;;;;;;;2.95;0.73;;;4.20;99.90;;;;;;2081132;28;20182;-70
2021/03/13 03:36:01;;;;;;;1.77;0.73;;;4.20;99.90;;;;;;2081049;28;20261;-69
2021/03/13 03:37:05;;;;;;;3.77;1.07;;;4.20;99.90;;;;;;2081597;28;20543;-70
2021/03/13 03:38:07;;;;;;;2.88;0.70;;;4.20;99.90;;;;;;2081387;28;20221;-69
2021/03/13 03:39:10;;;;;;;1.27;0.80;;;4.20;99.90;;;;;;2080941;28;20194;-69
2021/03/13 03:40:13;;;;;;;1.58;0.70;;;4.20;99.90;;;;;;2080881;28;20185;-69
2021/03/13 03:41:15;;;;;;;1.40;0.57;;;4.30;99.90;;;;;;2081061;28;20553;-69
2021/03/13 03:42:18;;;;;;;1.58;0.63;;;4.20;99.90;;;;;;2079824;28;20197;-69
2021/03/13 03:43:40;;;;;;;2.28;0.73;;;4.20;99.90;;;;;;2073079;28;20194;-70
2021/03/13 03:44:48;;;;;;;2.58;0.90;;;4.30;99.90;;;;;;2075635;28;20646;-69
2021/03/13 03:45:56;;;;;;;1.80;0.60;;;4.30;99.90;;;;;;2073978;28;20250;-69
2021/03/13 03:46:59;;;;;;;2.88;0.80;;;4.30;99.90;;;;;;2073717;28;20172;-70
2021/03/13 03:48:11;;;;;;;3.42;0.90;;;4.30;99.90;;;;;;2080820;28;20219;-70
2021/03/13 03:49:13;;;;;;;3.03;0.90;;;4.30;99.90;;;;;;2080855;28;20176;-69
2021/03/13 03:50:15;;;;;;;3.75;0.75;;;4.30;99.90;;;;;;2072946;28;20207;-68
2021/03/13 03:51:17;;;;;;;2.35;0.75;;;4.20;99.90;;;;;;2080185;28;20178;-70
2021/03/13 03:52:18;;;;;;;2.33;0.90;;;4.30;99.90;;;;;;2072569;28;20199;-69
2021/03/13 03:53:24;;;;;;;2.60;0.82;;;4.30;99.90;;;;;;2080596;28;20823;-69
2021/03/13 03:54:26;;;;;;;2.17;0.73;;;4.30;99.90;;;;;;2080839;28;20181;-69
2021/03/13 03:55:47;;;;;;;2.70;0.80;;;4.30;99.90;;;;;;2080842;28;20760;-69
2021/03/13 03:56:50;;;;;;;4.43;0.90;;;4.30;99.90;;;;;;2079269;28;20276;-69
2021/03/13 03:57:52;;;;;;;1.23;0.85;;;4.20;99.90;;;;;;2088772;28;20184;-69
2021/03/13 03:58:54;;;;;;;1.38;0.70;;;4.30;99.90;;;;;;2088818;28;20193;-69
2021/03/13 03:59:56;;;;;;;2.35;0.82;;;4.30;99.90;;;;;;2088935;28;20184;-69
2021/03/13 04:00:58;;;;;;;1.98;0.93;;;4.20;99.90;;;;;;2089127;28;20187;-69
2021/03/13 04:02:00;;;;;;;2.78;1.00;;;4.30;99.90;;;;;;2083673;28;20209;-69
2021/03/13 04:03:05;;;;;;;2.13;0.70;;;4.20;99.90;;;;;;2080432;28;20189;-69
2021/03/13 04:04:09;;;;;;;1.05;0.73;;;4.30;99.90;;;;;;2080512;28;20169;-69
2021/03/13 04:05:11;;;;;;;1.17;0.77;;;4.20;99.90;;;;;;2073093;28;20174;-69
2021/03/13 04:06:13;;;;;;;3.22;0.80;;;4.20;99.90;;;;;;2072701;28;20174;-67
2021/03/13 04:07:14;;;;;;;3.05;0.60;;;4.20;99.90;;;;;;2080793;28;20183;-69
2021/03/13 04:08:18;;;;;;;1.83;0.70;;;4.30;99.90;;;;;;2080666;28;20573;-69
2021/03/13 04:09:23;;;;;;;3.35;0.85;;;4.30;99.90;;;;;;2072811;28;20178;-69
2021/03/13 04:10:24;;;;;;;2.90;0.65;;;4.30;99.90;;;;;;2072941;28;20256;-69
2021/03/13 04:11:27;;;;;;;2.60;0.80;;;4.30;99.90;;;;;;2080012;28;20252;-70
2021/03/13 04:12:28;;;;;;;1.67;0.75;;;4.30;99.90;;;;;;2080313;28;20691;-69
2021/03/13 04:13:29;;;;;;;1.15;0.50;;;4.30;99.90;;;;;;2072566;28;20234;-69
2021/03/13 04:14:32;;;;;;;1.83;0.60;;;4.40;99.90;;;;;;2072185;28;20650;-69
2021/03/13 04:15:33;;;;;;;1.50;0.70;;;4.40;99.90;;;;;;2072719;28;20180;-70
2021/03/13 04:16:34;;;;;;;2.33;0.60;;;4.40;99.90;;;;;;2072330;28;20253;-69
2021/03/13 04:17:37;;;;;;;1.23;0.50;;;4.40;99.90;;;;;;2072481;28;20511;-69
2021/03/13 04:18:39;;;;;;;1.63;0.60;;;4.40;99.90;;;;;;2072411;28;20305;-68
2021/03/13 04:19:41;;;;;;;2.25;0.70;;;4.30;99.90;;;;;;2080501;28;20650;-70
2021/03/13 04:20:45;;;;;;;2.40;0.82;;;4.30;99.90;;;;;;2080100;28;20186;-68
2021/03/13 04:21:47;;;;;;;3.05;0.70;;;4.30;99.90;;;;;;2080274;28;20240;-69
2021/03/13 04:22:49;;;;;;;1.55;0.52;;;4.40;99.90;;;;;;2080429;28;20267;-69
2021/03/13 04:23:50;;;;;;;2.50;1.00;;;4.40;99.90;;;;;;2080628;28;20177;-69
2021/03/13 04:24:51;;;;;;;5.22;0.70;;;4.30;99.90;;;;;;2080534;28;20611;-69
2021/03/13 04:25:53;;;;;;;2.28;0.70;;;4.40;99.90;;;;;;2072509;28;20184;-69
2021/03/13 04:26:55;;;;;;;3.35;1.30;;;4.40;99.90;;;;;;2072338;28;20215;-69
2021/03/13 04:27:56;;;;;;;3.17;0.82;;;4.40;99.90;;;;;;2080540;28;20177;-69
2021/03/13 04:28:57;;;;;;;2.20;0.70;;;4.40;99.90;;;;;;2080319;28;20638;-69
2021/03/13 04:29:57;;;;;;;4.50;1.20;;;4.40;99.90;;;;;;2080753;28;20268;-69
2021/03/13 04:30:59;;;;;;;2.57;0.80;;;4.40;99.90;;;;;;2079835;28;20750;-69
2021/03/13 04:32:02;;;;;;;3.20;1.08;;;4.40;99.90;;;;;;2072372;28;20192;-69
2021/03/13 04:33:03;;;;;;;3.17;0.90;;;4.40;99.90;;;;;;2072430;28;20203;-69
2021/03/13 04:34:05;;;;;;;1.48;0.98;;;4.40;99.90;;;;;;2072433;28;20197;-72
2021/03/13 04:35:08;;;;;;;2.92;0.93;;;4.40;99.90;;;;;;2072460;28;20261;-69
2021/03/13 04:36:11;;;;;;;1.80;0.80;;;4.40;99.90;;;;;;2072401;28;20178;-69
2021/03/13 04:37:12;;;;;;;3.85;0.90;;;4.40;99.90;;;;;;2072627;28;20534;-70
2021/03/13 04:38:16;;;;;;;2.10;0.80;;;4.40;99.90;;;;;;2080441;28;20218;-69
2021/03/13 04:39:17;;;;;;;3.72;0.90;;;4.40;99.90;;;;;;2080553;28;20209;-70
2021/03/13 04:40:18;;;;;;;3.28;0.88;;;4.40;99.90;;;;;;2080559;28;20174;-69
2021/03/13 04:41:19;;;;;;;1.73;0.80;;;4.40;99.90;;;;;;2079787;28;20617;-69
2021/03/13 04:42:20;;;;;;;2.53;1.10;;;4.30;99.90;;;;;;2072257;28;20263;-69
2021/03/13 04:43:25;;;;;;;2.63;1.00;;;4.30;99.90;;;;;;2072291;28;20721;-70
2021/03/13 04:44:26;;;;;;;2.20;0.75;;;4.40;99.90;;;;;;2080505;28;20186;-69
2021/03/13 04:45:27;;;;;;;2.70;0.90;;;4.30;99.90;;;;;;2080413;28;20187;-70
2021/03/13 04:46:35;;;;;;;1.92;0.60;;;4.30;99.90;;;;;;2072256;28;20183;-69
2021/03/13 04:47:43;;;;;;;2.97;0.88;;;4.30;99.90;;;;;;2081267;28;20209;-69
2021/03/13 04:48:45;;;;;;;1.88;0.88;;;4.20;99.90;;;;;;2080591;28;20178;-69
2021/03/13 04:49:46;;;;;;;4.88;0.73;;;4.20;99.90;;;;;;2072600;28;20690;-69
2021/03/13 04:50:47;;;;;;;1.08;0.55;;;4.20;99.90;;;;;;2071987;28;20193;-70
2021/03/13 04:51:47;;;;;;;2.17;0.90;;;4.20;99.90;;;;;;2071982;28;20269;-69
2021/03/13 04:52:50;;;;;;;3.77;1.07;;;4.20;99.90;;;;;;2071929;28;20689;-70
2021/03/13 04:53:50;;;;;;;1.60;0.68;;;4.20;99.90;;;;;;2081896;28;20209;-69
2021/03/13 04:54:51;;;;;;;2.30;0.90;;;4.20;99.90;;;;;;2082531;28;20652;-69
2021/03/13 04:55:52;;;;;;;3.43;0.83;;;4.20;99.90;;;;;;2082959;28;20181;-69
2021/03/13 04:56:53;;;;;;;2.97;0.93;;;4.20;99.90;;;;;;2082728;28;20765;-69
2021/03/13 04:57:55;;;;;;;3.43;0.77;;;4.20;99.90;;;;;;2082566;28;20230;-69
2021/03/13 04:58:56;;;;;;;3.75;0.90;;;4.20;99.90;;;;;;2082228;28;20426;-69
2021/03/13 04:59:56;;;;;;;4.03;1.27;;;4.10;99.90;;;;;;2081731;28;20271;-69
2021/03/13 05:00:57;;;;;;;2.17;0.80;;;4.10;99.90;;;;;;2080961;28;20174;-69
2021/03/13 05:02:00;;;;;;;2.50;0.90;;;4.10;99.90;;;;;;2082441;28;20205;-69
2021/03/13 05:03:01;;;;;;;1.80;0.77;;;4.10;99.90;;;;;;2081481;28;20200;-69
2021/03/13 05:04:01;;;;;;;1.50;0.57;;;4.00;99.90;;;;;;2081798;28;20186;-69
2021/03/13 05:05:03;;;;;;;3.47;0.77;;;4.00;99.90;;;;;;2081714;28;20182;-69
2021/03/13 05:06:05;;;;;;;4.07;0.93;;;4.10;99.90;;;;;;2081910;28;20227;-69
2021/03/13 05:07:05;;;;;;;3.00;0.95;;;4.10;99.90;;;;;;2081665;28;20244;-69
2021/03/13 05:08:06;;;;;;;3.00;1.00;;;4.10;99.90;;;;;;2081819;28;20591;-69
2021/03/13 05:09:07;;;;;;;2.88;0.88;;;4.10;99.90;;;;;;2081468;28;20233;-69
2021/03/13 05:10:09;;;;;;;4.27;0.77;;;4.10;99.90;;;;;;2081857;28;20188;-70
2021/03/13 05:11:11;;;;;;;2.90;1.17;;;4.20;99.90;;;;;;2089235;28;20181;-69
2021/03/13 05:12:12;;;;;;;4.25;0.85;;;4.20;99.90;;;;;;2081687;28;20839;-69
2021/03/13 05:13:13;;;;;;;2.43;0.63;;;4.30;99.90;;;;;;2073461;28;20181;-69
2021/03/13 05:14:13;;;;;;;1.73;0.70;;;4.20;99.90;;;;;;2073384;28;20789;-69
2021/03/13 05:15:14;;;;;;;3.37;0.70;;;4.30;99.90;;;;;;2081545;28;20727;-69
2021/03/13 05:16:15;;;;;;;3.50;0.60;;;4.20;99.90;;;;;;2082289;28;20179;-69
2021/03/13 05:17:16;;;;;;;1.73;0.70;;;4.20;99.90;;;;;;2082115;28;20676;-70
2021/03/13 05:18:16;;;;;;;5.47;1.10;;;4.30;99.90;;;;;;2081657;28;20210;-68
2021/03/13 05:19:17;;;;;;;2.37;0.70;;;4.30;99.90;;;;;;2081498;28;20626;-70
2021/03/13 05:20:19;;;;;;;1.93;0.73;;;4.20;99.90;;;;;;2082328;28;20261;-69
2021/03/13 05:21:20;;;;;;;1.55;0.55;;;4.20;99.90;;;;;;2081450;28;20185;-70
2021/03/13 05:22:21;;;;;;;2.42;0.80;;;4.20;99.90;;;;;;2081541;28;20202;-69
2021/03/13 05:23:21;;;;;;;2.77;1.00;;;4.20;99.90;;;;;;2081519;28;20270;-69
2021/03/13 05:24:22;;;;;;;3.60;0.80;;;4.20;99.90;;;;;;2082351;28;20170;-69
2021/03/13 05:25:23;;;;;;;2.93;0.80;;;4.20;99.90;;;;;;2073210;28;20182;-69
2021/03/13 05:26:23;;;;;;;2.40;0.70;;;4.20;99.90;;;;;;2073626;28;20174;-70
2021/03/13 05:27:24;;;;;;;1.17;0.73;;;4.20;99.90;;;;;;2082315;28;20245;-70
2021/03/13 05:28:25;;;;;;;2.30;0.70;;;4.20;99.90;;;;;;2087652;28;20187;-69
2021/03/13 05:29:25;;;;;;;2.90;0.90;;;4.30;99.90;;;;;;2091080;28;20186;-69
2021/03/13 05:30:26;;;;;;;2.07;0.73;;;4.20;99.90;;;;;;2088226;28;20183;-69
2021/03/13 05:31:27;;;;;;;1.87;0.73;;;4.20;99.90;;;;;;2085964;28;20183;-70
2021/03/13 05:32:28;;;;;;;3.10;1.10;;;4.20;99.90;;;;;;2086455;28;20652;-69
2021/03/13 05:33:28;;;;;;;2.80;1.30;;;4.20;99.90;;;;;;2099995;22;20198;-67
2021/03/13 05:34:29;;;;;;;4.63;1.20;;;4.20;99.90;;;;;;2099124;28;20195;-67